createdAt,value
2018-08-28T00:00:50.546Z,75.30
2018-08-28T00:03:18.409Z,74.40
2018-08-28T00:05:46.606Z,73.40
2018-08-28T00:08:14.571Z,72.60
2018-08-28T00:10:42.399Z,72.60
2018-08-28T00:13:16.564Z,73.40
2018-08-28T00:15:50.647Z,75.30
2018-08-28T00:18:18.785Z,75.00
2018-08-28T00:20:46.604Z,74.10
2018-08-28T00:23:20.824Z,73.30
2018-08-28T00:25:57.348Z,73.30
2018-08-28T00:28:33.774Z,74.30
2018-08-28T00:31:10.147Z,74.70
2018-08-28T00:33:38.016Z,75.30
2018-08-28T00:36:05.909Z,75.90
2018-08-28T00:38:33.747Z,76.50
2018-08-28T00:41:01.525Z,77.50
2018-08-28T00:43:29.335Z,77.40
2018-08-28T00:45:57.434Z,77.60
2018-08-28T00:48:25.253Z,77.90
2018-08-28T00:50:53.700Z,78.50
2018-08-28T00:53:21.563Z,78.60
2018-08-28T00:55:49.396Z,79.10
2018-08-28T00:58:17.578Z,78.90
2018-08-28T01:00:45.463Z,79.70
2018-08-28T01:03:13.404Z,79.80
2018-08-28T01:05:41.232Z,79.70
2018-08-28T01:08:09.353Z,77.80
2018-08-28T01:10:37.937Z,78.10
2018-08-28T01:13:06.209Z,77.40
2018-08-28T01:15:34.070Z,78.10
2018-08-28T01:18:02.041Z,78.50
2018-08-28T01:20:30.786Z,78.50
2018-08-28T01:23:04.795Z,78.10
2018-08-28T01:25:38.684Z,77.70
2018-08-28T01:28:06.514Z,77.80
2018-08-28T01:30:35.097Z,78.00
2018-08-28T01:33:05.330Z,78.50
2018-08-28T01:35:34.680Z,78.70
2018-08-28T01:38:02.547Z,79.20
2018-08-28T01:40:30.765Z,79.40
2018-08-28T01:42:59.140Z,80.40
2018-08-28T01:45:27.045Z,79.80
2018-08-28T01:47:54.846Z,80.30
2018-08-28T01:50:22.841Z,80.00
2018-08-28T01:52:50.764Z,79.70
2018-08-28T01:55:18.631Z,80.50
2018-08-28T01:57:46.767Z,80.80
2018-08-28T02:00:14.587Z,81.50
2018-08-28T02:02:42.445Z,82.70
2018-08-28T02:05:10.382Z,82.30
2018-08-28T02:07:38.220Z,83.60
2018-08-28T02:10:07.124Z,84.00
2018-08-28T02:12:35.003Z,83.80
2018-08-28T02:15:02.980Z,84.80
2018-08-28T02:17:30.787Z,85.00
2018-08-28T02:19:58.634Z,84.80
2018-08-28T02:22:26.497Z,84.60
2018-08-28T02:24:54.338Z,84.10
2018-08-28T02:27:22.211Z,83.60
2018-08-28T02:29:50.040Z,84.10
2018-08-28T02:32:18.630Z,84.60
2018-08-28T02:34:46.468Z,84.50
2018-08-28T02:37:14.330Z,85.00
2018-08-28T02:39:42.325Z,84.70
2018-08-28T02:42:10.179Z,85.20
2018-08-28T02:44:38.020Z,85.30
2018-08-28T02:47:06.892Z,86.20
2018-08-28T02:49:35.037Z,86.00
2018-08-28T02:52:04.390Z,86.00
2018-08-28T02:54:32.555Z,85.80
2018-08-28T02:57:00.393Z,86.00
2018-08-28T02:59:28.262Z,87.00
2018-08-28T03:01:56.093Z,87.80
2018-08-28T03:04:23.974Z,87.70
2018-08-28T03:06:52.135Z,87.90
2018-08-28T03:09:20.001Z,87.80
2018-08-28T03:11:47.847Z,87.70
2018-08-28T03:14:16.381Z,87.80
2018-08-28T03:16:44.246Z,87.80
2018-08-28T03:19:12.410Z,87.60
2018-08-28T03:21:40.355Z,87.50
2018-08-28T03:24:08.262Z,87.00
2018-08-28T03:26:36.092Z,86.90
2018-08-28T03:29:04.399Z,86.70
2018-08-28T03:31:32.216Z,86.70
2018-08-28T03:34:00.237Z,86.70
2018-08-28T03:36:28.050Z,86.90
2018-08-28T03:38:55.923Z,87.00
2018-08-28T03:41:24.130Z,87.20
2018-08-28T03:43:51.978Z,87.10
2018-08-28T03:46:19.792Z,87.70
2018-08-28T03:48:48.997Z,87.80
2018-08-28T03:51:16.834Z,88.00
2018-08-28T03:53:44.712Z,87.90
2018-08-28T03:56:12.777Z,87.70
2018-08-28T03:58:43.427Z,87.90
2018-08-28T04:01:11.600Z,87.50
2018-08-28T04:03:39.926Z,87.80
2018-08-28T04:06:07.763Z,88.20
2018-08-28T04:08:35.599Z,88.50
2018-08-28T04:11:03.508Z,88.50
2018-08-28T04:13:31.496Z,89.00
2018-08-28T04:15:59.352Z,89.20
2018-08-28T04:18:27.226Z,90.10
2018-08-28T04:21:02.574Z,89.50
2018-08-28T04:23:30.450Z,89.40
2018-08-28T04:25:59.060Z,89.60
2018-08-28T04:28:28.337Z,89.30
2018-08-28T04:30:56.198Z,89.20
2018-08-28T04:33:24.059Z,89.70
2018-08-28T04:35:51.845Z,89.20
2018-08-28T04:38:19.765Z,89.20
2018-08-28T04:40:47.693Z,89.10
2018-08-28T04:43:15.545Z,88.80
2018-08-28T04:45:43.413Z,89.10
2018-08-28T04:48:11.336Z,88.70
2018-08-28T04:50:39.236Z,88.50
2018-08-28T04:53:07.885Z,88.90
2018-08-28T04:55:35.719Z,88.60
2018-08-28T04:58:03.611Z,88.70
2018-08-28T05:00:31.776Z,88.70
2018-08-28T05:02:59.636Z,89.10
2018-08-28T05:05:28.067Z,89.60
2018-08-28T05:07:55.911Z,90.00
2018-08-28T05:10:24.181Z,90.30
2018-08-28T05:12:52.234Z,90.30
2018-08-28T05:15:20.419Z,90.40
2018-08-28T05:17:48.447Z,90.20
2018-08-28T05:20:16.999Z,90.20
2018-08-28T05:22:44.870Z,90.20
2018-08-28T05:25:12.809Z,90.30
2018-08-28T05:27:40.658Z,90.20
2018-08-28T05:30:08.597Z,90.30
2018-08-28T05:32:36.533Z,90.30
2018-08-28T05:35:05.167Z,90.60
2018-08-28T05:37:33.008Z,90.20
2018-08-28T05:40:01.418Z,90.30
2018-08-28T05:42:29.278Z,90.50
2018-08-28T05:44:57.121Z,90.40
2018-08-28T05:47:25.028Z,90.40
2018-08-28T05:49:52.894Z,90.40
2018-08-28T05:52:20.745Z,90.30
2018-08-28T05:54:49.280Z,90.30
2018-08-28T05:57:17.173Z,90.30
2018-08-28T05:59:45.365Z,89.80
2018-08-28T06:02:13.184Z,89.30
2018-08-28T06:04:41.125Z,89.70
2018-08-28T06:07:08.986Z,89.10
2018-08-28T06:09:37.086Z,88.80
2018-08-28T06:12:05.786Z,88.30
2018-08-28T06:14:33.634Z,88.00
2018-08-28T06:17:01.501Z,87.80
2018-08-28T06:19:29.403Z,85.80
2018-08-28T06:21:57.315Z,85.80
2018-08-28T06:24:25.215Z,83.40
2018-08-28T06:26:53.968Z,82.40
2018-08-28T06:29:22.482Z,80.80
2018-08-28T06:31:50.466Z,80.20
2018-08-28T06:34:18.391Z,78.50
2018-08-28T06:36:46.294Z,78.20
2018-08-28T06:39:14.192Z,78.10
2018-08-28T06:41:43.915Z,77.40
2018-08-28T06:44:12.852Z,77.50
2018-08-28T06:46:41.007Z,77.20
2018-08-28T06:49:08.933Z,76.70
2018-08-28T06:51:36.917Z,76.70
2018-08-28T06:54:05.277Z,76.60
2018-08-28T06:56:34.116Z,76.80
2018-08-28T06:59:02.043Z,77.30
2018-08-28T07:01:29.943Z,76.50
2018-08-28T07:03:58.897Z,77.20
2018-08-28T07:06:26.798Z,77.40
2018-08-28T07:08:54.722Z,77.40
2018-08-28T07:11:23.460Z,77.60
2018-08-28T07:13:51.688Z,77.40
2018-08-28T07:16:19.598Z,77.00
2018-08-28T07:18:47.687Z,76.70
2018-08-28T07:21:15.588Z,75.70
2018-08-28T07:23:44.090Z,75.90
2018-08-28T07:26:12.109Z,76.30
2018-08-28T07:28:39.976Z,75.80
2018-08-28T07:31:07.869Z,75.90
2018-08-28T07:33:35.790Z,75.20
2018-08-28T07:36:03.755Z,74.50
2018-08-28T07:38:31.625Z,73.80
2018-08-28T07:40:59.529Z,73.90
2018-08-28T07:43:27.506Z,74.40
2018-08-28T07:45:55.477Z,73.40
2018-08-28T07:48:23.426Z,73.60
2018-08-28T07:50:51.945Z,75.20
2018-08-28T07:53:19.864Z,74.80
2018-08-28T07:55:48.515Z,73.50
2018-08-28T07:58:16.461Z,73.80
2018-08-28T08:00:44.407Z,73.40
2018-08-28T08:03:12.609Z,72.20
2018-08-28T08:05:40.511Z,72.30
2018-08-28T08:08:08.432Z,70.70
2018-08-28T08:10:36.371Z,70.40
2018-08-28T08:13:04.677Z,71.60
2018-08-28T08:15:33.427Z,73.10
2018-08-28T08:18:01.914Z,72.60
2018-08-28T08:20:29.828Z,71.30
2018-08-28T08:22:57.787Z,72.60
2018-08-28T08:25:25.980Z,69.10
2018-08-28T08:27:53.995Z,70.30
2018-08-28T08:30:22.051Z,69.80
2018-08-28T08:32:49.993Z,70.70
2018-08-28T08:35:17.969Z,70.40
2018-08-28T08:37:45.895Z,70.20
2018-08-28T08:40:13.819Z,71.00
2018-08-28T08:42:41.727Z,69.90
2018-08-28T08:45:09.649Z,70.60
2018-08-28T08:47:37.886Z,71.00
2018-08-28T08:50:06.433Z,69.30
2018-08-28T08:52:34.369Z,68.90
2018-08-28T08:55:02.412Z,70.90
2018-08-28T08:57:30.270Z,69.70
2018-08-28T08:59:58.907Z,68.90
2018-08-28T09:02:26.825Z,67.80
2018-08-28T09:04:54.748Z,68.70
2018-08-28T09:07:22.813Z,69.90
2018-08-28T09:09:51.599Z,70.00
2018-08-28T09:12:19.521Z,68.80
2018-08-28T09:14:47.462Z,68.50
2018-08-28T09:17:15.475Z,66.00
2018-08-28T09:19:43.400Z,67.10
2018-08-28T09:22:12.406Z,67.80
2018-08-28T09:24:40.477Z,67.90
2018-08-28T09:27:09.139Z,68.60
2018-08-28T09:29:37.044Z,69.00
2018-08-28T09:32:05.381Z,67.90
2018-08-28T09:34:33.262Z,68.60
2018-08-28T09:37:01.459Z,66.40
2018-08-28T09:39:30.191Z,65.90
2018-08-28T09:42:00.644Z,65.70
2018-08-28T09:44:28.552Z,63.40
2018-08-28T09:46:56.496Z,63.00
2018-08-28T09:49:24.412Z,65.10
2018-08-28T09:51:52.621Z,67.10
2018-08-28T09:54:21.325Z,63.40
2018-08-28T09:56:49.247Z,62.90
2018-08-28T09:59:17.774Z,65.50
2018-08-28T10:01:46.823Z,63.20
2018-08-28T10:04:15.930Z,63.60
2018-08-28T10:06:44.473Z,65.60
2018-08-28T10:09:13.759Z,63.40
2018-08-28T10:11:41.892Z,64.00
2018-08-28T10:14:11.291Z,62.50
2018-08-28T10:16:39.257Z,62.80
2018-08-28T10:19:07.232Z,60.50
2018-08-28T10:21:35.640Z,63.10
2018-08-28T10:24:03.601Z,62.10
2018-08-28T10:26:31.532Z,61.80
2018-08-28T10:28:59.741Z,62.60
2018-08-28T10:31:28.008Z,62.40
2018-08-28T10:33:55.901Z,62.60
2018-08-28T10:36:23.821Z,61.10
2018-08-28T10:38:52.248Z,62.90
2018-08-28T10:41:20.918Z,63.40
2018-08-28T10:43:49.180Z,63.40
2018-08-28T10:46:17.170Z,60.60
2018-08-28T10:48:45.070Z,61.20
2018-08-28T10:51:13.446Z,60.80
2018-08-28T10:53:42.204Z,61.80
2018-08-28T10:56:10.124Z,60.90
2018-08-28T10:58:38.220Z,61.70
2018-08-28T11:01:12.672Z,62.40
2018-08-28T11:03:40.743Z,60.10
2018-08-28T11:06:08.686Z,61.00
2018-08-28T11:08:36.890Z,58.20
2018-08-28T11:11:05.651Z,59.20
2018-08-28T11:13:34.259Z,59.70
2018-08-28T11:16:02.448Z,59.90
2018-08-28T11:18:30.362Z,61.00
2018-08-28T11:20:58.470Z,62.30
2018-08-28T11:23:26.755Z,58.90
2018-08-28T11:25:54.938Z,58.60
2018-08-28T11:28:22.862Z,57.90
2018-08-28T11:30:51.378Z,59.10
2018-08-28T11:33:19.864Z,57.70
2018-08-28T11:35:47.858Z,58.80
2018-08-28T11:38:15.772Z,58.70
2018-08-28T11:40:43.723Z,61.20
2018-08-28T11:43:12.524Z,58.20
2018-08-28T11:45:40.486Z,57.30
2018-08-28T11:48:08.378Z,57.90
2018-08-28T11:50:36.338Z,57.80
2018-08-28T11:53:04.305Z,56.00
2018-08-28T11:55:32.240Z,57.40
2018-08-28T11:58:00.462Z,56.00
2018-08-28T12:00:28.373Z,58.40
2018-08-28T12:02:56.277Z,54.90
2018-08-28T12:05:24.306Z,55.50
2018-08-28T12:07:52.339Z,53.50
2018-08-28T12:10:20.884Z,54.70
2018-08-28T12:12:48.765Z,54.30
2018-08-28T12:15:16.990Z,52.90
2018-08-28T12:17:44.930Z,53.40
2018-08-28T12:20:12.955Z,55.20
2018-08-28T12:22:40.842Z,55.00
2018-08-28T12:25:09.457Z,54.10
2018-08-28T12:27:37.621Z,53.80
2018-08-28T12:30:06.943Z,54.30
2018-08-28T12:32:35.012Z,54.20
2018-08-28T12:35:03.055Z,54.90
2018-08-28T12:37:31.563Z,54.30
2018-08-28T12:39:59.475Z,53.70
2018-08-28T12:42:28.208Z,53.80
2018-08-28T12:44:56.847Z,53.30
2018-08-28T12:47:24.722Z,54.10
2018-08-28T12:49:52.674Z,51.50
2018-08-28T12:52:20.587Z,50.90
2018-08-28T12:54:48.637Z,50.50
2018-08-28T12:57:17.496Z,52.60
2018-08-28T12:59:45.442Z,51.80
2018-08-28T13:02:13.437Z,52.30
2018-08-28T13:04:41.338Z,52.60
2018-08-28T13:07:09.302Z,51.70
2018-08-28T13:09:37.723Z,53.30
2018-08-28T13:12:05.682Z,52.90
2018-08-28T13:14:34.861Z,52.10
2018-08-28T13:17:03.061Z,53.10
2018-08-28T13:19:31.231Z,51.80
2018-08-28T13:21:59.179Z,52.50
2018-08-28T13:24:27.093Z,54.10
2018-08-28T13:26:54.963Z,53.40
2018-08-28T13:29:22.868Z,53.60
2018-08-28T13:31:50.745Z,53.50
2018-08-28T13:34:18.844Z,54.00
2018-08-28T13:36:47.510Z,54.60
2018-08-28T13:39:16.101Z,54.60
2018-08-28T13:41:44.077Z,54.00
2018-08-28T13:44:12.560Z,53.40
2018-08-28T13:46:40.545Z,52.40
2018-08-28T13:49:09.058Z,52.20
2018-08-28T13:51:37.399Z,52.40
2018-08-28T13:54:05.396Z,51.20
2018-08-28T13:56:33.294Z,52.50
2018-08-28T13:59:01.513Z,53.30
2018-08-28T14:01:29.448Z,52.70
2018-08-28T14:03:58.467Z,52.80
2018-08-28T14:06:26.498Z,52.00
2018-08-28T14:08:54.541Z,52.00
2018-08-28T14:11:22.444Z,52.80
2018-08-28T14:13:50.407Z,52.30
2018-08-28T14:16:18.422Z,53.70
2018-08-28T14:18:46.347Z,52.30
2018-08-28T14:21:14.249Z,52.70
2018-08-28T14:23:43.164Z,52.30
2018-08-28T14:26:11.298Z,52.20
2018-08-28T14:28:39.214Z,51.10
2018-08-28T14:31:07.211Z,50.90
2018-08-28T14:33:35.127Z,50.90
2018-08-28T14:36:03.059Z,51.30
2018-08-28T14:38:31.040Z,53.50
2018-08-28T14:40:59.218Z,52.40
2018-08-28T14:43:27.163Z,52.90
2018-08-28T14:45:55.094Z,51.10
2018-08-28T14:48:23.221Z,52.40
2018-08-28T14:50:51.121Z,51.80
2018-08-28T14:53:19.060Z,52.00
2018-08-28T14:55:46.984Z,51.40
2018-08-28T14:58:14.895Z,52.60
2018-08-28T15:00:43.023Z,52.30
2018-08-28T15:03:10.947Z,53.10
2018-08-28T15:05:38.854Z,52.50
2018-08-28T15:08:06.759Z,52.90
2018-08-28T15:10:34.746Z,53.80
2018-08-28T15:13:03.462Z,51.90
2018-08-28T15:15:31.371Z,52.30
2018-08-28T15:17:59.304Z,51.50
2018-08-28T15:20:27.208Z,50.20
2018-08-28T15:22:55.147Z,51.50
2018-08-28T15:25:23.589Z,50.70
2018-08-28T15:27:51.525Z,51.30
2018-08-28T15:30:19.542Z,50.70
2018-08-28T15:32:47.537Z,51.30
2018-08-28T15:35:15.636Z,50.70
2018-08-28T15:37:43.826Z,52.10
2018-08-28T15:40:12.159Z,51.60
2018-08-28T15:42:40.098Z,51.60
2018-08-28T15:45:08.250Z,52.40
2018-08-28T15:47:36.663Z,53.40
2018-08-28T15:50:04.688Z,51.70
2018-08-28T15:52:33.052Z,50.70
2018-08-28T15:55:01.156Z,52.60
2018-08-28T15:57:29.061Z,53.20
2018-08-28T15:59:57.248Z,51.30
2018-08-28T16:02:25.235Z,49.60
2018-08-28T16:04:53.245Z,51.10
2018-08-28T16:07:21.163Z,50.50
2018-08-28T16:09:49.093Z,51.90
2018-08-28T16:12:17.797Z,50.50
2018-08-28T16:14:45.815Z,51.20
2018-08-28T16:17:13.722Z,52.30
2018-08-28T16:19:41.664Z,51.90
2018-08-28T16:22:10.227Z,51.30
2018-08-28T16:24:38.744Z,52.40
2018-08-28T16:27:06.665Z,52.40
2018-08-28T16:29:34.634Z,52.40
2018-08-28T16:32:03.282Z,53.30
2018-08-28T16:34:31.375Z,53.60
2018-08-28T16:36:59.347Z,52.00
2018-08-28T16:39:27.603Z,52.90
2018-08-28T16:41:56.527Z,53.60
2018-08-28T16:44:24.690Z,54.10
2018-08-28T16:46:52.722Z,54.30
2018-08-28T16:49:20.615Z,55.00
2018-08-28T16:51:48.891Z,55.80
2018-08-28T16:54:16.807Z,56.40
2018-08-28T16:56:44.766Z,56.00
2018-08-28T16:59:12.997Z,56.00
2018-08-28T17:01:41.046Z,56.30
2018-08-28T17:04:08.876Z,55.70
2018-08-28T17:06:37.348Z,55.30
2018-08-28T17:09:06.036Z,55.70
2018-08-28T17:11:33.998Z,55.70
2018-08-28T17:14:01.945Z,55.50
2018-08-28T17:16:29.856Z,54.70
2018-08-28T17:18:57.744Z,55.00
2018-08-28T17:21:25.648Z,55.20
2018-08-28T17:23:53.610Z,55.40
2018-08-28T17:26:21.506Z,56.20
2018-08-28T17:28:49.686Z,55.90
2018-08-28T17:31:17.603Z,56.00
2018-08-28T17:33:45.584Z,59.30
2018-08-28T17:36:13.564Z,59.10
2018-08-28T17:38:41.461Z,59.30
2018-08-28T17:41:09.403Z,59.60
2018-08-28T17:43:37.559Z,59.60
2018-08-28T17:46:05.517Z,59.70
2018-08-28T17:48:33.439Z,59.40
2018-08-28T17:51:01.313Z,59.10
2018-08-28T17:53:29.221Z,59.80
2018-08-28T17:55:57.111Z,60.00
2018-08-28T17:58:25.037Z,63.50
2018-08-28T18:00:52.954Z,64.40
2018-08-28T18:03:20.897Z,64.10
2018-08-28T18:05:50.459Z,62.30
2018-08-28T18:08:18.384Z,63.10
2018-08-28T18:10:46.367Z,63.50
2018-08-28T18:13:14.252Z,63.50
2018-08-28T18:15:42.208Z,64.00
2018-08-28T18:18:10.786Z,64.00
2018-08-28T18:20:39.381Z,64.30
2018-08-28T18:23:07.468Z,64.70
2018-08-28T18:25:35.381Z,64.00
2018-08-28T18:28:03.306Z,63.90
2018-08-28T18:30:31.218Z,64.70
2018-08-28T18:32:59.618Z,65.00
2018-08-28T18:35:28.487Z,66.10
2018-08-28T18:37:56.704Z,67.40
2018-08-28T18:40:24.674Z,67.80
2018-08-28T18:42:52.561Z,68.10
2018-08-28T18:45:20.833Z,68.20
2018-08-28T18:47:48.697Z,69.20
2018-08-28T18:50:16.623Z,69.60
2018-08-28T18:52:44.507Z,70.50
2018-08-28T18:55:12.410Z,70.50
2018-08-28T18:57:40.288Z,70.30
2018-08-28T19:00:08.867Z,71.00
2018-08-28T19:02:36.866Z,71.00
2018-08-28T19:05:04.867Z,70.40
2018-08-28T19:07:32.811Z,70.90
2018-08-28T19:10:00.727Z,70.70
2018-08-28T19:12:29.443Z,72.10
2018-08-28T19:14:57.333Z,72.60
2018-08-28T19:17:25.818Z,72.50
2018-08-28T19:19:53.743Z,72.80
2018-08-28T19:22:22.460Z,73.10
2018-08-28T19:24:50.340Z,73.20
2018-08-28T19:27:18.223Z,72.50
2018-08-28T19:29:46.715Z,72.70
2018-08-28T19:32:14.607Z,74.60
2018-08-28T19:34:42.986Z,74.00
2018-08-28T19:37:11.410Z,74.30
2018-08-28T19:39:39.373Z,73.90
2018-08-28T19:42:07.297Z,73.50
2018-08-28T19:44:36.744Z,73.20
2018-08-28T19:47:04.822Z,72.00
2018-08-28T19:49:32.731Z,70.40
2018-08-28T19:52:00.695Z,70.40
2018-08-28T19:54:29.300Z,70.50
2018-08-28T19:56:57.286Z,71.70
2018-08-28T19:59:25.168Z,73.10
2018-08-28T20:01:53.402Z,73.60
2018-08-28T20:04:21.324Z,74.10
2018-08-28T20:06:50.219Z,74.20
2018-08-28T20:09:18.126Z,74.90
2018-08-28T20:11:46.062Z,74.40
2018-08-28T20:14:15.709Z,75.00
2018-08-28T20:16:44.268Z,75.00
2018-08-28T20:19:12.214Z,74.90
2018-08-28T20:21:40.150Z,75.10
2018-08-28T20:24:08.056Z,75.30
2018-08-28T20:26:35.978Z,75.00
2018-08-28T20:29:04.106Z,75.20
2018-08-28T20:31:32.039Z,75.40
2018-08-28T20:34:00.592Z,75.50
2018-08-28T20:36:28.569Z,75.60
2018-08-28T20:38:57.070Z,76.20
2018-08-28T20:41:25.045Z,76.30
2018-08-28T20:43:52.987Z,76.80
2018-08-28T20:46:20.891Z,76.90
2018-08-28T20:48:48.785Z,77.00
2018-08-28T20:51:17.022Z,77.20
2018-08-28T20:53:45.014Z,77.70
2018-08-28T20:56:12.844Z,78.10
2018-08-28T20:58:40.710Z,78.40
2018-08-28T21:01:08.600Z,78.20
2018-08-28T21:03:36.514Z,78.40
2018-08-28T21:06:04.615Z,78.00
2018-08-28T21:08:33.444Z,78.30
2018-08-28T21:11:01.408Z,78.10
2018-08-28T21:13:29.373Z,78.50
2018-08-28T21:15:57.267Z,78.50
2018-08-28T21:18:25.155Z,78.50
2018-08-28T21:20:53.103Z,78.60
2018-08-28T21:23:21.016Z,78.40
2018-08-28T21:25:49.282Z,78.40
2018-08-28T21:28:17.141Z,78.30
2018-08-28T21:30:45.321Z,78.70
2018-08-28T21:33:13.344Z,78.70
2018-08-28T21:35:41.503Z,78.10
2018-08-28T21:38:09.484Z,78.60
2018-08-28T21:40:37.463Z,78.80
2018-08-28T21:43:05.405Z,79.40
2018-08-28T21:45:33.917Z,79.80
2018-08-28T21:48:02.584Z,79.70
2018-08-28T21:50:30.501Z,79.80
2018-08-28T21:52:58.416Z,80.00
2018-08-28T21:55:26.289Z,80.10
2018-08-28T21:57:54.524Z,80.70
2018-08-28T22:00:23.509Z,80.50
2018-08-28T22:02:51.663Z,80.50
2018-08-28T22:05:24.359Z,80.70
2018-08-28T22:07:57.543Z,81.30
2018-08-28T22:10:25.663Z,81.60
2018-08-28T22:12:53.546Z,81.70
2018-08-28T22:15:21.450Z,81.60
2018-08-28T22:17:49.342Z,82.10
2018-08-28T22:20:17.511Z,82.30
2018-08-28T22:22:45.444Z,83.10
2018-08-28T22:25:13.444Z,82.80
2018-08-28T22:27:41.349Z,83.10
2018-08-28T22:30:10.059Z,83.20
2018-08-28T22:32:38.590Z,83.00
2018-08-28T22:35:06.517Z,83.10
2018-08-28T22:37:34.720Z,83.20
2018-08-28T22:40:03.287Z,83.40
2018-08-28T22:42:31.243Z,83.70
2018-08-28T22:44:59.102Z,84.10
2018-08-28T22:47:26.973Z,84.00
2018-08-28T22:49:54.834Z,84.10
2018-08-28T22:52:22.757Z,84.30
2018-08-28T22:54:50.636Z,84.10
2018-08-28T22:57:18.495Z,84.60
2018-08-28T22:59:47.153Z,84.60
2018-08-28T23:02:17.241Z,84.60
2018-08-28T23:04:45.151Z,84.50
2018-08-28T23:07:13.082Z,84.30
2018-08-28T23:09:40.965Z,84.00
2018-08-28T23:12:08.866Z,83.80
2018-08-28T23:14:36.767Z,83.70
2018-08-28T23:17:04.604Z,83.80
2018-08-28T23:19:33.692Z,83.60
2018-08-28T23:22:01.707Z,83.80
2018-08-28T23:24:29.618Z,83.90
2018-08-28T23:26:57.632Z,83.30
2018-08-28T23:29:25.489Z,82.80
2018-08-28T23:31:53.919Z,83.20
2018-08-28T23:34:22.511Z,83.40
2018-08-28T23:36:50.432Z,83.40
2018-08-28T23:39:18.598Z,83.20
2018-08-28T23:41:46.459Z,83.40
2018-08-28T23:44:14.351Z,83.50
2018-08-28T23:46:42.297Z,83.70
2018-08-28T23:49:10.223Z,83.50
2018-08-28T23:51:38.186Z,83.70
2018-08-28T23:54:06.117Z,84.00
2018-08-28T23:56:33.987Z,84.00
2018-08-28T23:59:01.894Z,84.20
